Mazama, WA

1:02 AM PST on December 26, 2014 (GMT -0800)
Arlington Municipal | Change Station
CLOSE
Current Station
Airport
Location: Arlington,
Elevation: 138 ft
Nearby Weather Stations

Elev 138 ft 48.16 °N, 122.16 °W | Updated 7 minutes ago

Partly Cloudy
Partly Cloudy
34 °F
Feels Like 34 °F
N
0
Wind Variable Wind from North

Today
High -- | Low -- °F
--% Chance of Precip.
Yesterday
High -- | Low -- °F
Precip. -- in
7:52 AM 4:10 PM
Waxing Crescent, 24% visible
Pressure 30.31 in
Visibility 2.5 miles
Clouds Scattered Clouds 1200 ft
Overcast 3800 ft
Dew Point 32 °F
Humidity 93%
Rainfall 0.00 in
Snow Depth Not available.
UV 0 out of 12
Pollen .50 out of 12
Air Quality Not available.
Flu Activity Not available.
METAR KAWO 260855Z AUTO 00000KT 2 1/2SM SCT012 OVC038 01/00 A3031 RMK AO1 52003

More Conditions Fewer Conditions

Pressure 30.31 in
Visibility 2.5 miles
Clouds Scattered Clouds 1200 ft
Overcast 3800 ft
Dew Point 32 °F
Humidity 93%
Rainfall 0.00 in
Snow Depth Not available.
UV 0 out of 12
Pollen .50 out of 12
Air Quality Not available.
Flu Activity Not available.
METAR KAWO 260855Z AUTO 00000KT 2 1/2SM SCT012 OVC038 01/00 A3031 RMK AO1 52003

More Conditions Fewer Conditions

10-Day Weather Forecast

Almanac

Astronomy

Dec. 26, 2014 Rise Set
Actual Time
Civil Twilight
Nautical Twilight
Astronomical Twilight
Moon
Length of Visible Light
Length of Day
Tomorrow will be .
, % of the Moon is Illuminated

Today's Extremes

State Highs State Lows

Community

WunderPhotos

Upload Photos

1,780,568 photos uploaded!

WunderBlogs® & News

Nearby

Air Quality

  Air Quality AQ Index Pollutant
Not available.

Snow Depth

Station Depth Elevation

Earthquake Activity

City Distance Mag. Time & Date
Minimum magnitude displayed is 2.5.

Coastal Water Temperatures

Place Temperature

Nearby Weather Stations